Terminal Aerodrome Forecast
Issued by NWS

Home | Current Version | Previous Version | Text Only | Print | Product List | Glossary On
Versions: 1 2 3 4 5 6 7 8 9 10 11 12 13
000
FTUS45 KTFX 042326
TAFLWT
TAF
KLWT 042326Z 0500/0524 02009KT P6SM SCT150
     FM050300 09010KT P6SM SCT100 BKN150
     FM050700 35011KT P6SM SCT060 BKN120
      TEMPO 0507/0510 VRB20G30KT -TSRA BKN050CB
     FM051100 35008KT P6SM -SHRA BKN050
     FM052000 34009KT P6SM SCT070 BKN110=

USA.gov is the U.S. government's official web portal to all federal, state and local government web resources and services.